sensor_id;sensor_type;location;lat;lon;timestamp;P1;durP1;ratioP1;P2;durP2;ratioP2
32407;SDS011;18869;55.970;37.502;2023-05-07T00:01:43;9.37;;;7.27;;
32407;SDS011;18869;55.970;37.502;2023-05-07T00:04:12;8.00;;;7.30;;
32407;SDS011;18869;55.970;37.502;2023-05-07T00:06:41;10.23;;;7.40;;
32407;SDS011;18869;55.970;37.502;2023-05-07T00:09:10;9.07;;;8.10;;
32407;SDS011;18869;55.970;37.502;2023-05-07T00:11:38;8.43;;;7.57;;
32407;SDS011;18869;55.970;37.502;2023-05-07T00:14:07;7.57;;;6.97;;
32407;SDS011;18869;55.970;37.502;2023-05-07T00:16:34;8.23;;;7.43;;
32407;SDS011;18869;55.970;37.502;2023-05-07T00:19:03;7.37;;;6.50;;
32407;SDS011;18869;55.970;37.502;2023-05-07T00:21:31;7.27;;;6.03;;
32407;SDS011;18869;55.970;37.502;2023-05-07T00:24:01;6.80;;;6.10;;
32407;SDS011;18869;55.970;37.502;2023-05-07T00:26:29;11.33;;;6.80;;
32407;SDS011;18869;55.970;37.502;2023-05-07T00:28:58;9.03;;;7.53;;
32407;SDS011;18869;55.970;37.502;2023-05-07T00:31:27;8.03;;;7.23;;
32407;SDS011;18869;55.970;37.502;2023-05-07T00:33:56;6.63;;;6.03;;
32407;SDS011;18869;55.970;37.502;2023-05-07T00:36:23;6.43;;;5.90;;
32407;SDS011;18869;55.970;37.502;2023-05-07T00:38:53;7.10;;;6.30;;
32407;SDS011;18869;55.970;37.502;2023-05-07T00:41:22;7.43;;;5.90;;
32407;SDS011;18869;55.970;37.502;2023-05-07T00:43:50;7.03;;;6.43;;
32407;SDS011;18869;55.970;37.502;2023-05-07T00:46:18;6.97;;;6.37;;
32407;SDS011;18869;55.970;37.502;2023-05-07T00:48:49;7.67;;;6.97;;
32407;SDS011;18869;55.970;37.502;2023-05-07T00:51:17;9.77;;;6.47;;
32407;SDS011;18869;55.970;37.502;2023-05-07T00:53:45;6.57;;;5.97;;
32407;SDS011;18869;55.970;37.502;2023-05-07T00:56:13;6.73;;;6.23;;
32407;SDS011;18869;55.970;37.502;2023-05-07T00:58:42;7.23;;;6.23;;
32407;SDS011;18869;55.970;37.502;2023-05-07T01:01:09;5.83;;;5.33;;
32407;SDS011;18869;55.970;37.502;2023-05-07T01:03:38;7.53;;;6.83;;
32407;SDS011;18869;55.970;37.502;2023-05-07T01:06:05;9.87;;;7.10;;
32407;SDS011;18869;55.970;37.502;2023-05-07T01:08:34;11.33;;;8.87;;
32407;SDS011;18869;55.970;37.502;2023-05-07T01:11:02;7.53;;;6.83;;
32407;SDS011;18869;55.970;37.502;2023-05-07T01:13:30;8.40;;;7.53;;
32407;SDS011;18869;55.970;37.502;2023-05-07T01:15:59;8.83;;;8.03;;
32407;SDS011;18869;55.970;37.502;2023-05-07T01:18:28;8.30;;;7.50;;
32407;SDS011;18869;55.970;37.502;2023-05-07T01:20:58;8.30;;;7.50;;
32407;SDS011;18869;55.970;37.502;2023-05-07T01:23:28;8.37;;;7.57;;
32407;SDS011;18869;55.970;37.502;2023-05-07T01:25:56;8.47;;;7.63;;
32407;SDS011;18869;55.970;37.502;2023-05-07T01:28:25;8.97;;;7.37;;
32407;SDS011;18869;55.970;37.502;2023-05-07T01:30:56;8.17;;;7.33;;
32407;SDS011;18869;55.970;37.502;2023-05-07T01:33:26;7.53;;;6.90;;
32407;SDS011;18869;55.970;37.502;2023-05-07T01:35:57;7.67;;;6.90;;
32407;SDS011;18869;55.970;37.502;2023-05-07T01:38:31;8.77;;;7.97;;
32407;SDS011;18869;55.970;37.502;2023-05-07T01:40:58;7.50;;;6.87;;
32407;SDS011;18869;55.970;37.502;2023-05-07T01:43:26;6.90;;;6.30;;
32407;SDS011;18869;55.970;37.502;2023-05-07T01:45:54;7.60;;;6.90;;
32407;SDS011;18869;55.970;37.502;2023-05-07T01:48:23;7.27;;;6.57;;
32407;SDS011;18869;55.970;37.502;2023-05-07T01:50:51;9.57;;;6.70;;
32407;SDS011;18869;55.970;37.502;2023-05-07T01:53:20;7.33;;;6.57;;
32407;SDS011;18869;55.970;37.502;2023-05-07T01:55:49;7.03;;;6.43;;
32407;SDS011;18869;55.970;37.502;2023-05-07T01:58:16;6.63;;;6.00;;
32407;SDS011;18869;55.970;37.502;2023-05-07T02:00:44;7.47;;;6.30;;
32407;SDS011;18869;55.970;37.502;2023-05-07T02:03:12;15.77;;;7.20;;
32407;SDS011;18869;55.970;37.502;2023-05-07T02:05:40;8.03;;;7.23;;
32407;SDS011;18869;55.970;37.502;2023-05-07T02:08:08;12.53;;;7.17;;
32407;SDS011;18869;55.970;37.502;2023-05-07T02:10:36;7.10;;;6.50;;
32407;SDS011;18869;55.970;37.502;2023-05-07T02:13:06;8.53;;;7.47;;
32407;SDS011;18869;55.970;37.502;2023-05-07T02:15:34;10.80;;;7.13;;
32407;SDS011;18869;55.970;37.502;2023-05-07T02:18:03;7.80;;;6.90;;
32407;SDS011;18869;55.970;37.502;2023-05-07T02:20:32;7.83;;;7.13;;
32407;SDS011;18869;55.970;37.502;2023-05-07T02:23:01;7.87;;;7.07;;
32407;SDS011;18869;55.970;37.502;2023-05-07T02:25:29;7.93;;;7.13;;
32407;SDS011;18869;55.970;37.502;2023-05-07T02:27:57;7.70;;;6.97;;
32407;SDS011;18869;55.970;37.502;2023-05-07T02:30:26;7.87;;;7.07;;
32407;SDS011;18869;55.970;37.502;2023-05-07T02:32:55;8.17;;;6.37;;
32407;SDS011;18869;55.970;37.502;2023-05-07T02:35:23;7.47;;;6.50;;
32407;SDS011;18869;55.970;37.502;2023-05-07T02:37:51;7.67;;;6.97;;
32407;SDS011;18869;55.970;37.502;2023-05-07T02:40:20;8.87;;;7.50;;
32407;SDS011;18869;55.970;37.502;2023-05-07T02:42:48;8.40;;;6.83;;
32407;SDS011;18869;55.970;37.502;2023-05-07T02:45:16;8.33;;;6.90;;
32407;SDS011;18869;55.970;37.502;2023-05-07T02:47:46;12.43;;;6.90;;
32407;SDS011;18869;55.970;37.502;2023-05-07T02:50:14;7.77;;;6.97;;
32407;SDS011;18869;55.970;37.502;2023-05-07T02:52:41;8.30;;;7.43;;
32407;SDS011;18869;55.970;37.502;2023-05-07T02:55:10;8.97;;;6.93;;
32407;SDS011;18869;55.970;37.502;2023-05-07T02:57:38;11.37;;;7.43;;
32407;SDS011;18869;55.970;37.502;2023-05-07T03:00:12;8.67;;;7.83;;
32407;SDS011;18869;55.970;37.502;2023-05-07T03:02:43;8.67;;;7.83;;
32407;SDS011;18869;55.970;37.502;2023-05-07T03:05:12;7.50;;;6.80;;
32407;SDS011;18869;55.970;37.502;2023-05-07T03:07:40;8.77;;;6.70;;
32407;SDS011;18869;55.970;37.502;2023-05-07T03:10:11;8.37;;;6.87;;
32407;SDS011;18869;55.970;37.502;2023-05-07T03:12:39;7.17;;;6.50;;
32407;SDS011;18869;55.970;37.502;2023-05-07T03:15:08;8.70;;;7.43;;
32407;SDS011;18869;55.970;37.502;2023-05-07T03:17:38;8.03;;;7.23;;
32407;SDS011;18869;55.970;37.502;2023-05-07T03:20:06;7.83;;;7.03;;
32407;SDS011;18869;55.970;37.502;2023-05-07T03:22:37;7.50;;;6.90;;
32407;SDS011;18869;55.970;37.502;2023-05-07T03:25:05;7.70;;;7.00;;
32407;SDS011;18869;55.970;37.502;2023-05-07T03:27:36;8.83;;;6.90;;
32407;SDS011;18869;55.970;37.502;2023-05-07T03:30:05;7.00;;;6.30;;
32407;SDS011;18869;55.970;37.502;2023-05-07T03:32:35;6.90;;;6.30;;
32407;SDS011;18869;55.970;37.502;2023-05-07T03:35:04;6.93;;;6.30;;
32407;SDS011;18869;55.970;37.502;2023-05-07T03:37:33;5.93;;;5.43;;
32407;SDS011;18869;55.970;37.502;2023-05-07T03:40:03;11.13;;;5.73;;
32407;SDS011;18869;55.970;37.502;2023-05-07T03:42:32;6.50;;;5.73;;
32407;SDS011;18869;55.970;37.502;2023-05-07T03:45:00;6.13;;;5.63;;
32407;SDS011;18869;55.970;37.502;2023-05-07T03:47:31;6.23;;;5.73;;
32407;SDS011;18869;55.970;37.502;2023-05-07T03:49:59;6.30;;;5.80;;
32407;SDS011;18869;55.970;37.502;2023-05-07T03:52:29;5.53;;;5.03;;
32407;SDS011;18869;55.970;37.502;2023-05-07T03:54:58;5.33;;;4.90;;
32407;SDS011;18869;55.970;37.502;2023-05-07T03:57:29;4.93;;;4.60;;
32407;SDS011;18869;55.970;37.502;2023-05-07T03:59:57;5.07;;;4.67;;
32407;SDS011;18869;55.970;37.502;2023-05-07T04:02:25;5.63;;;5.20;;
32407;SDS011;18869;55.970;37.502;2023-05-07T04:04:53;9.43;;;5.20;;
32407;SDS011;18869;55.970;37.502;2023-05-07T04:07:21;5.80;;;5.30;;
32407;SDS011;18869;55.970;37.502;2023-05-07T04:09:49;5.27;;;4.87;;
32407;SDS011;18869;55.970;37.502;2023-05-07T04:12:17;4.13;;;3.83;;
32407;SDS011;18869;55.970;37.502;2023-05-07T04:14:48;5.10;;;4.77;;
32407;SDS011;18869;55.970;37.502;2023-05-07T04:17:17;4.20;;;3.90;;
32407;SDS011;18869;55.970;37.502;2023-05-07T04:19:45;4.57;;;4.27;;
32407;SDS011;18869;55.970;37.502;2023-05-07T04:22:13;4.50;;;4.20;;
32407;SDS011;18869;55.970;37.502;2023-05-07T04:24:42;5.27;;;4.73;;
32407;SDS011;18869;55.970;37.502;2023-05-07T04:27:12;8.57;;;3.83;;
32407;SDS011;18869;55.970;37.502;2023-05-07T04:29:39;4.23;;;4.03;;
32407;SDS011;18869;55.970;37.502;2023-05-07T04:32:10;4.43;;;4.03;;
32407;SDS011;18869;55.970;37.502;2023-05-07T04:34:38;4.80;;;4.40;;
32407;SDS011;18869;55.970;37.502;2023-05-07T04:37:06;4.17;;;3.93;;
32407;SDS011;18869;55.970;37.502;2023-05-07T04:39:34;5.13;;;4.13;;
32407;SDS011;18869;55.970;37.502;2023-05-07T04:42:02;4.40;;;4.00;;
32407;SDS011;18869;55.970;37.502;2023-05-07T04:44:30;3.47;;;3.27;;
32407;SDS011;18869;55.970;37.502;2023-05-07T04:47:11;4.53;;;4.23;;
32407;SDS011;18869;55.970;37.502;2023-05-07T04:49:39;3.93;;;3.63;;
32407;SDS011;18869;55.970;37.502;2023-05-07T04:52:10;3.27;;;3.00;;
32407;SDS011;18869;55.970;37.502;2023-05-07T04:54:38;3.83;;;3.60;;
32407;SDS011;18869;55.970;37.502;2023-05-07T04:57:06;3.50;;;3.30;;
32407;SDS011;18869;55.970;37.502;2023-05-07T04:59:34;3.27;;;2.97;;
32407;SDS011;18869;55.970;37.502;2023-05-07T05:02:02;3.40;;;3.20;;
32407;SDS011;18869;55.970;37.502;2023-05-07T05:04:31;2.90;;;2.80;;
32407;SDS011;18869;55.970;37.502;2023-05-07T05:07:00;3.10;;;2.90;;
32407;SDS011;18869;55.970;37.502;2023-05-07T05:09:30;2.90;;;2.80;;
32407;SDS011;18869;55.970;37.502;2023-05-07T05:11:57;3.13;;;2.93;;
32407;SDS011;18869;55.970;37.502;2023-05-07T05:14:25;3.00;;;2.77;;
32407;SDS011;18869;55.970;37.502;2023-05-07T05:16:53;3.00;;;2.63;;
32407;SDS011;18869;55.970;37.502;2023-05-07T05:19:21;3.07;;;2.87;;
32407;SDS011;18869;55.970;37.502;2023-05-07T05:21:51;3.00;;;2.80;;
32407;SDS011;18869;55.970;37.502;2023-05-07T05:24:19;2.83;;;2.63;;
32407;SDS011;18869;55.970;37.502;2023-05-07T05:26:46;2.90;;;2.70;;
32407;SDS011;18869;55.970;37.502;2023-05-07T05:29:14;3.57;;;2.73;;
32407;SDS011;18869;55.970;37.502;2023-05-07T05:31:43;2.83;;;2.63;;
32407;SDS011;18869;55.970;37.502;2023-05-07T05:34:11;2.77;;;2.60;;
32407;SDS011;18869;55.970;37.502;2023-05-07T05:36:39;2.10;;;1.87;;
32407;SDS011;18869;55.970;37.502;2023-05-07T05:39:09;3.03;;;1.93;;
32407;SDS011;18869;55.970;37.502;2023-05-07T05:41:36;2.13;;;1.70;;
32407;SDS011;18869;55.970;37.502;2023-05-07T05:44:05;1.77;;;1.67;;
32407;SDS011;18869;55.970;37.502;2023-05-07T05:46:33;1.70;;;1.60;;
32407;SDS011;18869;55.970;37.502;2023-05-07T05:49:00;1.40;;;1.30;;
32407;SDS011;18869;55.970;37.502;2023-05-07T05:51:30;2.47;;;1.70;;
32407;SDS011;18869;55.970;37.502;2023-05-07T05:53:59;1.30;;;1.20;;
32407;SDS011;18869;55.970;37.502;2023-05-07T05:56:29;0.90;;;0.90;;
32407;SDS011;18869;55.970;37.502;2023-05-07T05:58:57;1.33;;;0.70;;
32407;SDS011;18869;55.970;37.502;2023-05-07T06:01:24;0.50;;;0.50;;
32407;SDS011;18869;55.970;37.502;2023-05-07T06:03:52;1.43;;;0.80;;
32407;SDS011;18869;55.970;37.502;2023-05-07T06:06:21;0.70;;;0.50;;
32407;SDS011;18869;55.970;37.502;2023-05-07T06:08:48;2.08;;;0.77;;
32407;SDS011;18869;55.970;37.502;2023-05-07T06:11:16;1.30;;;0.70;;
32407;SDS011;18869;55.970;37.502;2023-05-07T06:13:46;2.53;;;0.90;;
32407;SDS011;18869;55.970;37.502;2023-05-07T06:16:13;1.45;;;0.57;;
32407;SDS011;18869;55.970;37.502;2023-05-07T06:18:42;0.95;;;0.60;;
32407;SDS011;18869;55.970;37.502;2023-05-07T06:21:13;1.95;;;0.62;;
32407;SDS011;18869;55.970;37.502;2023-05-07T06:23:41;1.25;;;0.88;;
32407;SDS011;18869;55.970;37.502;2023-05-07T06:26:09;1.42;;;0.90;;
32407;SDS011;18869;55.970;37.502;2023-05-07T06:28:37;1.75;;;0.60;;
32407;SDS011;18869;55.970;37.502;2023-05-07T06:31:14;0.80;;;0.80;;
32407;SDS011;18869;55.970;37.502;2023-05-07T06:33:42;0.95;;;0.68;;
32407;SDS011;18869;55.970;37.502;2023-05-07T06:36:13;2.78;;;0.88;;
32407;SDS011;18869;55.970;37.502;2023-05-07T06:38:42;1.30;;;0.97;;
32407;SDS011;18869;55.970;37.502;2023-05-07T06:41:10;0.80;;;0.80;;
32407;SDS011;18869;55.970;37.502;2023-05-07T06:43:39;1.20;;;0.80;;
32407;SDS011;18869;55.970;37.502;2023-05-07T06:46:09;0.93;;;0.80;;
32407;SDS011;18869;55.970;37.502;2023-05-07T06:48:39;0.67;;;0.67;;
32407;SDS011;18869;55.970;37.502;2023-05-07T06:51:08;0.80;;;0.80;;
32407;SDS011;18869;55.970;37.502;2023-05-07T06:53:35;1.00;;;0.73;;
32407;SDS011;18869;55.970;37.502;2023-05-07T06:56:03;1.80;;;1.00;;
32407;SDS011;18869;55.970;37.502;2023-05-07T06:58:31;0.73;;;0.73;;
32407;SDS011;18869;55.970;37.502;2023-05-07T07:01:00;2.37;;;0.87;;
32407;SDS011;18869;55.970;37.502;2023-05-07T07:03:28;0.50;;;0.50;;
32407;SDS011;18869;55.970;37.502;2023-05-07T07:05:57;1.00;;;0.70;;
32407;SDS011;18869;55.970;37.502;2023-05-07T07:08:26;0.63;;;0.63;;
32407;SDS011;18869;55.970;37.502;2023-05-07T07:10:54;0.50;;;0.47;;
32407;SDS011;18869;55.970;37.502;2023-05-07T07:13:21;0.88;;;0.85;;
32407;SDS011;18869;55.970;37.502;2023-05-07T07:15:49;3.95;;;0.70;;
32407;SDS011;18869;55.970;37.502;2023-05-07T07:18:18;1.80;;;0.90;;
32407;SDS011;18869;55.970;37.502;2023-05-07T07:20:46;0.70;;;0.62;;
32407;SDS011;18869;55.970;37.502;2023-05-07T07:23:16;2.90;;;1.10;;
32407;SDS011;18869;55.970;37.502;2023-05-07T07:25:43;1.48;;;0.80;;
32407;SDS011;18869;55.970;37.502;2023-05-07T07:28:11;1.90;;;1.07;;
32407;SDS011;18869;55.970;37.502;2023-05-07T07:30:39;1.17;;;0.77;;
32407;SDS011;18869;55.970;37.502;2023-05-07T07:33:06;1.97;;;0.90;;
32407;SDS011;18869;55.970;37.502;2023-05-07T07:35:36;1.00;;;1.00;;
32407;SDS011;18869;55.970;37.502;2023-05-07T07:38:04;0.90;;;0.90;;
32407;SDS011;18869;55.970;37.502;2023-05-07T07:40:34;1.10;;;0.90;;
32407;SDS011;18869;55.970;37.502;2023-05-07T07:43:01;1.27;;;0.90;;
32407;SDS011;18869;55.970;37.502;2023-05-07T07:45:30;1.07;;;0.70;;
32407;SDS011;18869;55.970;37.502;2023-05-07T07:47:59;1.00;;;0.70;;
32407;SDS011;18869;55.970;37.502;2023-05-07T07:50:29;0.60;;;0.60;;
32407;SDS011;18869;55.970;37.502;2023-05-07T07:52:57;3.40;;;2.63;;
32407;SDS011;18869;55.970;37.502;2023-05-07T07:55:24;4.23;;;3.83;;
32407;SDS011;18869;55.970;37.502;2023-05-07T07:57:55;2.37;;;2.07;;
32407;SDS011;18869;55.970;37.502;2023-05-07T08:00:23;2.90;;;1.00;;
32407;SDS011;18869;55.970;37.502;2023-05-07T08:02:51;1.20;;;0.80;;
32407;SDS011;18869;55.970;37.502;2023-05-07T08:05:19;0.65;;;0.65;;
32407;SDS011;18869;55.970;37.502;2023-05-07T08:07:47;1.00;;;0.90;;
32407;SDS011;18869;55.970;37.502;2023-05-07T08:10:18;0.47;;;0.47;;
32407;SDS011;18869;55.970;37.502;2023-05-07T08:12:47;1.55;;;0.73;;
32407;SDS011;18869;55.970;37.502;2023-05-07T08:15:18;0.93;;;0.82;;
32407;SDS011;18869;55.970;37.502;2023-05-07T08:17:49;0.93;;;0.70;;
32407;SDS011;18869;55.970;37.502;2023-05-07T08:20:17;2.22;;;0.75;;
32407;SDS011;18869;55.970;37.502;2023-05-07T08:22:45;1.08;;;0.70;;
32407;SDS011;18869;55.970;37.502;2023-05-07T08:25:13;0.80;;;0.70;;
32407;SDS011;18869;55.970;37.502;2023-05-07T08:27:41;0.63;;;0.63;;
32407;SDS011;18869;55.970;37.502;2023-05-07T08:30:11;1.53;;;0.90;;
32407;SDS011;18869;55.970;37.502;2023-05-07T08:32:41;1.23;;;0.90;;
32407;SDS011;18869;55.970;37.502;2023-05-07T08:35:08;0.90;;;0.90;;
32407;SDS011;18869;55.970;37.502;2023-05-07T08:37:37;1.20;;;1.00;;
32407;SDS011;18869;55.970;37.502;2023-05-07T08:40:06;1.30;;;1.00;;
32407;SDS011;18869;55.970;37.502;2023-05-07T08:42:35;3.60;;;0.73;;
32407;SDS011;18869;55.970;37.502;2023-05-07T08:45:04;1.10;;;1.10;;
32407;SDS011;18869;55.970;37.502;2023-05-07T08:47:42;1.87;;;1.20;;
32407;SDS011;18869;55.970;37.502;2023-05-07T08:50:13;1.30;;;1.20;;
32407;SDS011;18869;55.970;37.502;2023-05-07T08:52:42;1.17;;;0.93;;
32407;SDS011;18869;55.970;37.502;2023-05-07T08:55:09;1.10;;;1.00;;
32407;SDS011;18869;55.970;37.502;2023-05-07T08:57:37;3.30;;;1.13;;
32407;SDS011;18869;55.970;37.502;2023-05-07T09:00:06;1.30;;;1.20;;
32407;SDS011;18869;55.970;37.502;2023-05-07T09:02:36;0.73;;;0.73;;
32407;SDS011;18869;55.970;37.502;2023-05-07T09:05:06;1.10;;;0.90;;
32407;SDS011;18869;55.970;37.502;2023-05-07T09:07:35;1.77;;;0.87;;
32407;SDS011;18869;55.970;37.502;2023-05-07T09:10:04;1.50;;;1.23;;
32407;SDS011;18869;55.970;37.502;2023-05-07T09:12:33;2.83;;;2.53;;
32407;SDS011;18869;55.970;37.502;2023-05-07T09:15:02;1.10;;;0.90;;
32407;SDS011;18869;55.970;37.502;2023-05-07T09:17:33;0.90;;;0.90;;
32407;SDS011;18869;55.970;37.502;2023-05-07T09:20:06;2.03;;;1.30;;
32407;SDS011;18869;55.970;37.502;2023-05-07T09:22:36;1.10;;;1.00;;
32407;SDS011;18869;55.970;37.502;2023-05-07T09:25:04;2.27;;;1.30;;
32407;SDS011;18869;55.970;37.502;2023-05-07T09:27:33;1.27;;;1.03;;
32407;SDS011;18869;55.970;37.502;2023-05-07T09:30:03;0.90;;;0.90;;
32407;SDS011;18869;55.970;37.502;2023-05-07T09:32:34;1.33;;;1.10;;
32407;SDS011;18869;55.970;37.502;2023-05-07T09:35:03;1.80;;;1.30;;
32407;SDS011;18869;55.970;37.502;2023-05-07T09:37:32;1.87;;;1.40;;
32407;SDS011;18869;55.970;37.502;2023-05-07T09:40:00;3.70;;;1.90;;
32407;SDS011;18869;55.970;37.502;2023-05-07T09:42:30;2.03;;;1.30;;
32407;SDS011;18869;55.970;37.502;2023-05-07T09:44:58;1.77;;;1.67;;
32407;SDS011;18869;55.970;37.502;2023-05-07T09:47:26;1.70;;;1.60;;
32407;SDS011;18869;55.970;37.502;2023-05-07T09:49:57;1.30;;;1.20;;
32407;SDS011;18869;55.970;37.502;2023-05-07T09:52:26;0.90;;;0.90;;
32407;SDS011;18869;55.970;37.502;2023-05-07T09:55:02;2.30;;;0.80;;
32407;SDS011;18869;55.970;37.502;2023-05-07T09:57:32;1.30;;;1.20;;
32407;SDS011;18869;55.970;37.502;2023-05-07T10:00:01;1.10;;;1.00;;
32407;SDS011;18869;55.970;37.502;2023-05-07T10:02:32;1.10;;;1.10;;
32407;SDS011;18869;55.970;37.502;2023-05-07T10:05:03;2.20;;;1.10;;
32407;SDS011;18869;55.970;37.502;2023-05-07T10:07:31;1.40;;;1.30;;
32407;SDS011;18869;55.970;37.502;2023-05-07T10:09:59;2.47;;;1.20;;
32407;SDS011;18869;55.970;37.502;2023-05-07T10:12:30;1.80;;;1.43;;
32407;SDS011;18869;55.970;37.502;2023-05-07T10:15:03;3.20;;;1.50;;
32407;SDS011;18869;55.970;37.502;2023-05-07T10:17:32;4.97;;;2.17;;
32407;SDS011;18869;55.970;37.502;2023-05-07T10:20:02;1.93;;;1.83;;
32407;SDS011;18869;55.970;37.502;2023-05-07T10:22:32;1.87;;;1.77;;
32407;SDS011;18869;55.970;37.502;2023-05-07T10:25:08;1.80;;;1.70;;
32407;SDS011;18869;55.970;37.502;2023-05-07T10:27:40;2.27;;;1.80;;
32407;SDS011;18869;55.970;37.502;2023-05-07T10:30:11;2.17;;;1.97;;
32407;SDS011;18869;55.970;37.502;2023-05-07T10:32:42;3.17;;;2.23;;
32407;SDS011;18869;55.970;37.502;2023-05-07T10:35:14;4.27;;;1.90;;
32407;SDS011;18869;55.970;37.502;2023-05-07T10:37:45;2.67;;;2.37;;
32407;SDS011;18869;55.970;37.502;2023-05-07T10:40:15;2.70;;;2.23;;
32407;SDS011;18869;55.970;37.502;2023-05-07T10:42:53;1.67;;;1.57;;
32407;SDS011;18869;55.970;37.502;2023-05-07T10:45:23;3.57;;;2.20;;
32407;SDS011;18869;55.970;37.502;2023-05-07T10:48:07;2.17;;;1.80;;
32407;SDS011;18869;55.970;37.502;2023-05-07T10:50:36;1.80;;;1.70;;
32407;SDS011;18869;55.970;37.502;2023-05-07T10:53:20;2.97;;;1.83;;
32407;SDS011;18869;55.970;37.502;2023-05-07T10:55:52;1.70;;;1.60;;
32407;SDS011;18869;55.970;37.502;2023-05-07T10:58:53;2.20;;;1.97;;
32407;SDS011;18869;55.970;37.502;2023-05-07T11:04:18;2.57;;;2.27;;
32407;SDS011;18869;55.970;37.502;2023-05-07T11:09:56;2.17;;;2.07;;
32407;SDS011;18869;55.970;37.502;2023-05-07T11:15:41;2.13;;;1.60;;
32407;SDS011;18869;55.970;37.502;2023-05-07T11:18:15;3.00;;;1.70;;
32407;SDS011;18869;55.970;37.502;2023-05-07T11:26:25;3.23;;;2.37;;
32407;SDS011;18869;55.970;37.502;2023-05-07T11:28:59;1.80;;;1.70;;
32407;SDS011;18869;55.970;37.502;2023-05-07T11:31:29;1.73;;;1.63;;
32407;SDS011;18869;55.970;37.502;2023-05-07T11:34:01;1.80;;;1.70;;
32407;SDS011;18869;55.970;37.502;2023-05-07T11:36:30;1.93;;;1.83;;
32407;SDS011;18869;55.970;37.502;2023-05-07T11:39:02;1.80;;;1.70;;
32407;SDS011;18869;55.970;37.502;2023-05-07T11:41:33;2.30;;;1.77;;
32407;SDS011;18869;55.970;37.502;2023-05-07T11:44:03;1.63;;;1.37;;
32407;SDS011;18869;55.970;37.502;2023-05-07T11:46:31;1.60;;;1.50;;
32407;SDS011;18869;55.970;37.502;2023-05-07T11:49:00;1.90;;;1.80;;
32407;SDS011;18869;55.970;37.502;2023-05-07T11:51:28;2.00;;;1.90;;
32407;SDS011;18869;55.970;37.502;2023-05-07T11:53:56;2.60;;;2.10;;
32407;SDS011;18869;55.970;37.502;2023-05-07T11:56:23;3.90;;;2.20;;
32407;SDS011;18869;55.970;37.502;2023-05-07T11:58:52;3.90;;;2.30;;
32407;SDS011;18869;55.970;37.502;2023-05-07T12:01:21;3.80;;;2.60;;
32407;SDS011;18869;55.970;37.502;2023-05-07T12:03:49;2.87;;;2.57;;
32407;SDS011;18869;55.970;37.502;2023-05-07T12:06:17;4.33;;;3.77;;
32407;SDS011;18869;55.970;37.502;2023-05-07T12:08:46;8.63;;;6.60;;
32407;SDS011;18869;55.970;37.502;2023-05-07T12:11:15;10.37;;;6.80;;
32407;SDS011;18869;55.970;37.502;2023-05-07T12:13:44;3.03;;;2.53;;
32407;SDS011;18869;55.970;37.502;2023-05-07T12:16:12;3.97;;;3.53;;
32407;SDS011;18869;55.970;37.502;2023-05-07T12:18:41;8.23;;;6.47;;
32407;SDS011;18869;55.970;37.502;2023-05-07T12:21:09;9.23;;;6.67;;
32407;SDS011;18869;55.970;37.502;2023-05-07T12:23:37;5.70;;;4.30;;
32407;SDS011;18869;55.970;37.502;2023-05-07T12:26:05;5.27;;;4.77;;
32407;SDS011;18869;55.970;37.502;2023-05-07T12:28:36;6.20;;;4.97;;
32407;SDS011;18869;55.970;37.502;2023-05-07T12:31:06;4.00;;;3.23;;
32407;SDS011;18869;55.970;37.502;2023-05-07T12:33:34;3.73;;;2.33;;
32407;SDS011;18869;55.970;37.502;2023-05-07T12:36:07;2.60;;;2.40;;
32407;SDS011;18869;55.970;37.502;2023-05-07T12:38:37;2.47;;;2.27;;
32407;SDS011;18869;55.970;37.502;2023-05-07T12:41:06;2.70;;;2.07;;
32407;SDS011;18869;55.970;37.502;2023-05-07T12:43:38;2.10;;;2.00;;
32407;SDS011;18869;55.970;37.502;2023-05-07T12:46:06;2.43;;;2.10;;
32407;SDS011;18869;55.970;37.502;2023-05-07T12:48:35;2.30;;;2.20;;
32407;SDS011;18869;55.970;37.502;2023-05-07T12:51:06;1.90;;;1.80;;
32407;SDS011;18869;55.970;37.502;2023-05-07T12:53:39;2.40;;;2.20;;
32407;SDS011;18869;55.970;37.502;2023-05-07T12:56:08;4.07;;;1.90;;
32407;SDS011;18869;55.970;37.502;2023-05-07T12:58:35;2.27;;;2.17;;
32407;SDS011;18869;55.970;37.502;2023-05-07T13:01:04;3.60;;;2.07;;
32407;SDS011;18869;55.970;37.502;2023-05-07T13:03:33;2.43;;;2.00;;
32407;SDS011;18869;55.970;37.502;2023-05-07T13:06:01;2.30;;;1.87;;
32407;SDS011;18869;55.970;37.502;2023-05-07T13:08:32;2.03;;;1.70;;
32407;SDS011;18869;55.970;37.502;2023-05-07T13:11:02;2.27;;;1.63;;
32407;SDS011;18869;55.970;37.502;2023-05-07T13:13:31;1.53;;;1.33;;
32407;SDS011;18869;55.970;37.502;2023-05-07T13:15:59;2.43;;;1.87;;
32407;SDS011;18869;55.970;37.502;2023-05-07T13:18:29;2.77;;;2.03;;
32407;SDS011;18869;55.970;37.502;2023-05-07T13:20:57;2.00;;;1.80;;
32407;SDS011;18869;55.970;37.502;2023-05-07T13:23:25;1.83;;;1.70;;
32407;SDS011;18869;55.970;37.502;2023-05-07T13:25:56;1.60;;;1.50;;
32407;SDS011;18869;55.970;37.502;2023-05-07T13:28:25;1.70;;;1.60;;
32407;SDS011;18869;55.970;37.502;2023-05-07T13:30:54;1.80;;;1.70;;
32407;SDS011;18869;55.970;37.502;2023-05-07T13:33:21;3.33;;;1.77;;
32407;SDS011;18869;55.970;37.502;2023-05-07T13:35:50;1.70;;;1.60;;
32407;SDS011;18869;55.970;37.502;2023-05-07T13:38:18;1.90;;;1.80;;
32407;SDS011;18869;55.970;37.502;2023-05-07T13:40:46;2.37;;;2.17;;
32407;SDS011;18869;55.970;37.502;2023-05-07T13:43:15;3.23;;;2.23;;
32407;SDS011;18869;55.970;37.502;2023-05-07T13:45:43;2.07;;;1.90;;
32407;SDS011;18869;55.970;37.502;2023-05-07T13:48:10;2.07;;;1.97;;
32407;SDS011;18869;55.970;37.502;2023-05-07T13:50:38;1.93;;;1.80;;
32407;SDS011;18869;55.970;37.502;2023-05-07T13:53:07;2.13;;;2.03;;
32407;SDS011;18869;55.970;37.502;2023-05-07T13:55:35;4.10;;;2.70;;
32407;SDS011;18869;55.970;37.502;2023-05-07T13:58:03;2.30;;;2.20;;
32407;SDS011;18869;55.970;37.502;2023-05-07T14:00:36;2.37;;;1.90;;
32407;SDS011;18869;55.970;37.502;2023-05-07T14:03:05;2.67;;;2.00;;
32407;SDS011;18869;55.970;37.502;2023-05-07T14:05:33;2.30;;;2.10;;
32407;SDS011;18869;55.970;37.502;2023-05-07T14:08:01;2.60;;;2.40;;
32407;SDS011;18869;55.970;37.502;2023-05-07T14:10:31;1.83;;;1.73;;
32407;SDS011;18869;55.970;37.502;2023-05-07T14:13:00;3.17;;;2.30;;
32407;SDS011;18869;55.970;37.502;2023-05-07T14:15:27;2.23;;;2.13;;
32407;SDS011;18869;55.970;37.502;2023-05-07T14:17:56;1.60;;;1.50;;
32407;SDS011;18869;55.970;37.502;2023-05-07T14:20:24;3.87;;;2.10;;
32407;SDS011;18869;55.970;37.502;2023-05-07T14:22:52;2.13;;;1.97;;
32407;SDS011;18869;55.970;37.502;2023-05-07T14:25:21;2.00;;;1.90;;
32407;SDS011;18869;55.970;37.502;2023-05-07T14:27:49;1.83;;;1.73;;
32407;SDS011;18869;55.970;37.502;2023-05-07T14:30:16;2.27;;;2.10;;
32407;SDS011;18869;55.970;37.502;2023-05-07T14:32:44;2.60;;;2.10;;
32407;SDS011;18869;55.970;37.502;2023-05-07T14:35:13;2.60;;;2.40;;
32407;SDS011;18869;55.970;37.502;2023-05-07T14:37:41;2.27;;;2.03;;
32407;SDS011;18869;55.970;37.502;2023-05-07T14:40:09;2.27;;;2.00;;
32407;SDS011;18869;55.970;37.502;2023-05-07T14:42:37;2.93;;;2.63;;
32407;SDS011;18869;55.970;37.502;2023-05-07T14:45:05;2.77;;;2.33;;
32407;SDS011;18869;55.970;37.502;2023-05-07T14:47:34;2.00;;;1.90;;
32407;SDS011;18869;55.970;37.502;2023-05-07T14:50:02;2.27;;;2.13;;
32407;SDS011;18869;55.970;37.502;2023-05-07T14:52:31;2.50;;;2.30;;
32407;SDS011;18869;55.970;37.502;2023-05-07T14:54:59;3.50;;;2.73;;
32407;SDS011;18869;55.970;37.502;2023-05-07T14:57:30;3.37;;;2.43;;
32407;SDS011;18869;55.970;37.502;2023-05-07T15:00:00;2.20;;;2.10;;